createdAt,value
2019-05-11T00:00:42.063Z,8.00
2019-05-11T00:01:42.036Z,6.60
2019-05-11T00:02:42.043Z,7.00
2019-05-11T00:03:42.050Z,12.00
2019-05-11T00:04:42.017Z,6.40
2019-05-11T00:05:42.001Z,6.60
2019-05-11T00:06:41.990Z,6.30
2019-05-11T00:07:42.000Z,8.30
2019-05-11T00:08:41.972Z,7.10
2019-05-11T00:09:56.964Z,7.50
2019-05-11T00:10:42.945Z,7.40
2019-05-11T00:11:41.965Z,6.80
2019-05-11T00:12:41.958Z,8.80
2019-05-11T00:13:41.936Z,8.70
2019-05-11T00:14:41.907Z,7.20
2019-05-11T00:15:41.895Z,7.60
2019-05-11T00:16:41.886Z,6.60
2019-05-11T00:17:41.891Z,8.50
2019-05-11T00:18:41.893Z,9.00
2019-05-11T00:19:41.849Z,6.90
2019-05-11T00:20:41.859Z,9.10
2019-05-11T00:21:41.829Z,8.30
2019-05-11T00:22:41.817Z,8.40
2019-05-11T00:23:41.818Z,8.20
2019-05-11T00:24:41.796Z,9.20
2019-05-11T00:25:41.789Z,8.40
2019-05-11T00:26:41.776Z,7.80
2019-05-11T00:27:41.763Z,7.60
2019-05-11T00:28:41.772Z,8.60
2019-05-11T00:29:41.767Z,8.50
2019-05-11T00:30:41.732Z,8.70
2019-05-11T00:31:41.738Z,9.30
2019-05-11T00:32:41.710Z,8.70
2019-05-11T00:33:41.720Z,9.00
2019-05-11T00:34:41.694Z,8.80
2019-05-11T00:35:41.691Z,10.00
2019-05-11T00:36:41.696Z,8.40
2019-05-11T00:37:41.653Z,8.70
2019-05-11T00:38:41.710Z,8.50
2019-05-11T00:39:41.640Z,9.40
2019-05-11T00:40:41.619Z,8.40
2019-05-11T00:41:41.615Z,10.20
2019-05-11T00:42:41.603Z,12.20
2019-05-11T00:43:41.610Z,9.50
2019-05-11T00:44:41.588Z,10.70
2019-05-11T00:45:41.569Z,9.10
2019-05-11T00:46:41.565Z,9.50
2019-05-11T00:47:41.559Z,10.50
2019-05-11T00:48:41.547Z,10.10
2019-05-11T00:49:41.529Z,10.50
2019-05-11T00:50:41.527Z,10.50
2019-05-11T00:51:41.506Z,10.20
2019-05-11T00:52:41.489Z,12.90
2019-05-11T00:53:41.507Z,10.60
2019-05-11T00:54:41.495Z,11.20
2019-05-11T00:55:41.467Z,10.70
2019-05-11T00:56:41.452Z,10.80
2019-05-11T00:57:41.454Z,10.40
2019-05-11T00:58:41.442Z,12.40
2019-05-11T00:59:41.444Z,10.20
2019-05-11T01:00:41.412Z,10.20
2019-05-11T01:01:41.407Z,10.10
2019-05-11T01:02:41.390Z,11.10
2019-05-11T01:03:41.394Z,10.80
2019-05-11T01:04:41.378Z,10.20
2019-05-11T01:05:41.362Z,11.10
2019-05-11T01:06:41.351Z,10.80
2019-05-11T01:07:41.335Z,11.00
2019-05-11T01:08:41.343Z,9.80
2019-05-11T01:09:41.309Z,9.60
2019-05-11T01:10:42.653Z,10.50
2019-05-11T01:11:41.288Z,9.90
2019-05-11T01:12:41.300Z,10.30
2019-05-11T01:13:41.444Z,10.80
2019-05-11T01:14:41.258Z,9.80
2019-05-11T01:15:41.257Z,9.10
2019-05-11T01:16:41.245Z,10.50
2019-05-11T01:17:41.234Z,8.70
2019-05-11T01:18:41.230Z,10.60
2019-05-11T01:19:41.208Z,10.70
2019-05-11T01:20:41.205Z,10.00
2019-05-11T01:21:41.189Z,9.80
2019-05-11T01:22:41.203Z,10.00
2019-05-11T01:23:41.193Z,10.70
2019-05-11T01:24:41.148Z,9.50
2019-05-11T01:25:41.147Z,8.90
2019-05-11T01:26:41.135Z,9.60
2019-05-11T01:27:41.120Z,9.50
2019-05-11T01:28:41.114Z,9.20
2019-05-11T01:29:41.110Z,9.20
2019-05-11T01:30:41.097Z,9.10
2019-05-11T01:31:41.082Z,8.80
2019-05-11T01:32:41.065Z,8.90
2019-05-11T01:33:41.068Z,8.90
2019-05-11T01:34:41.064Z,8.70
2019-05-11T01:35:41.046Z,10.60
2019-05-11T01:36:41.025Z,8.30
2019-05-11T01:37:41.008Z,9.00
2019-05-11T01:38:41.009Z,8.80
2019-05-11T01:39:41.197Z,9.20
2019-05-11T01:40:40.983Z,9.40
2019-05-11T01:41:40.966Z,8.70
2019-05-11T01:42:40.961Z,8.90
2019-05-11T01:43:40.971Z,11.10
2019-05-11T01:44:40.954Z,10.10
2019-05-11T01:45:40.960Z,10.10
2019-05-11T01:46:40.927Z,9.60
2019-05-11T01:47:40.941Z,9.40
2019-05-11T01:48:40.895Z,10.40
2019-05-11T01:49:40.921Z,10.80
2019-05-11T01:50:40.884Z,12.10
2019-05-11T01:51:40.859Z,10.70
2019-05-11T01:52:40.866Z,11.30
2019-05-11T01:53:40.851Z,10.80
2019-05-11T01:54:40.852Z,10.70
2019-05-11T01:55:40.818Z,11.60
2019-05-11T01:56:40.810Z,10.40
2019-05-11T01:57:40.799Z,12.00
2019-05-11T01:58:40.809Z,12.80
2019-05-11T01:59:40.802Z,12.80
2019-05-11T02:00:40.784Z,14.00
2019-05-11T02:01:40.758Z,15.50
2019-05-11T02:02:40.740Z,12.80
2019-05-11T02:03:40.736Z,12.90
2019-05-11T02:04:40.741Z,13.60
2019-05-11T02:05:40.719Z,13.40
2019-05-11T02:06:40.702Z,13.50
2019-05-11T02:07:40.695Z,13.60
2019-05-11T02:08:40.719Z,12.80
2019-05-11T02:09:40.689Z,12.40
2019-05-11T02:10:40.654Z,13.30
2019-05-11T02:11:40.650Z,13.90
2019-05-11T02:12:40.640Z,14.40
2019-05-11T02:13:40.638Z,15.30
2019-05-11T02:14:40.619Z,15.20
2019-05-11T02:15:40.617Z,14.40
2019-05-11T02:16:40.593Z,16.50
2019-05-11T02:17:40.593Z,14.90
2019-05-11T02:18:40.581Z,15.00
2019-05-11T02:19:40.566Z,15.30
2019-05-11T02:20:40.573Z,15.50
2019-05-11T02:21:40.561Z,16.20
2019-05-11T02:22:40.527Z,18.30
2019-05-11T02:23:40.518Z,18.80
2019-05-11T02:24:40.512Z,18.10
2019-05-11T02:25:40.530Z,14.90
2019-05-11T02:26:40.490Z,14.50
2019-05-11T02:27:40.474Z,15.00
2019-05-11T02:28:40.465Z,18.30
2019-05-11T02:29:41.641Z,16.00
2019-05-11T02:30:40.474Z,15.70
2019-05-11T02:31:40.456Z,15.50
2019-05-11T02:32:40.424Z,15.90
2019-05-11T02:33:40.417Z,17.30
2019-05-11T02:34:40.402Z,16.30
2019-05-11T02:35:40.589Z,15.50
2019-05-11T02:36:40.387Z,17.10
2019-05-11T02:37:40.369Z,16.60
2019-05-11T02:38:40.371Z,16.80
2019-05-11T02:39:40.353Z,18.10
2019-05-11T02:40:40.355Z,16.70
2019-05-11T02:41:40.340Z,15.20
2019-05-11T02:42:40.328Z,18.30
2019-05-11T02:43:40.316Z,17.10
2019-05-11T02:44:40.324Z,14.50
2019-05-11T02:45:40.301Z,15.90
2019-05-11T02:46:40.270Z,17.20
2019-05-11T02:47:40.271Z,17.10
2019-05-11T02:48:40.252Z,15.70
2019-05-11T02:49:40.247Z,14.50
2019-05-11T02:50:40.250Z,15.50
2019-05-11T02:51:40.225Z,14.30
2019-05-11T02:52:40.213Z,16.60
2019-05-11T02:53:40.204Z,16.80
2019-05-11T02:54:40.216Z,17.00
2019-05-11T02:55:40.192Z,19.70
2019-05-11T02:56:40.166Z,16.40
2019-05-11T02:57:40.158Z,16.10
2019-05-11T02:58:40.150Z,17.60
2019-05-11T02:59:40.143Z,17.50
2019-05-11T03:00:40.294Z,15.60
2019-05-11T03:01:40.133Z,14.60
2019-05-11T03:02:40.112Z,17.50
2019-05-11T03:03:40.094Z,16.20
2019-05-11T03:04:40.122Z,17.00
2019-05-11T03:05:40.100Z,18.00
2019-05-11T03:06:40.056Z,17.50
2019-05-11T03:07:40.060Z,14.70
2019-05-11T03:08:40.045Z,14.40
2019-05-11T03:09:40.026Z,16.40
2019-05-11T03:10:40.207Z,15.50
2019-05-11T03:11:55.131Z,15.80
2019-05-11T03:12:41.015Z,14.10
2019-05-11T03:13:39.983Z,14.90
2019-05-11T03:14:39.975Z,16.70
2019-05-11T03:15:39.990Z,16.70
2019-05-11T03:16:39.973Z,14.40
2019-05-11T03:17:39.962Z,15.20
2019-05-11T03:18:39.935Z,15.30
2019-05-11T03:19:39.926Z,14.90
2019-05-11T03:20:39.994Z,14.10
2019-05-11T03:21:39.899Z,13.60
2019-05-11T03:22:39.890Z,14.30
2019-05-11T03:23:39.883Z,12.80
2019-05-11T03:24:39.873Z,12.40
2019-05-11T03:25:39.863Z,14.30
2019-05-11T03:26:39.918Z,11.60
2019-05-11T03:27:39.838Z,13.60
2019-05-11T03:28:39.842Z,14.00
2019-05-11T03:29:39.819Z,13.90
2019-05-11T03:30:39.848Z,12.10
2019-05-11T03:31:39.818Z,12.40
2019-05-11T03:32:39.787Z,11.90
2019-05-11T03:33:39.786Z,12.70
2019-05-11T03:34:39.769Z,13.20
2019-05-11T03:35:39.765Z,11.70
2019-05-11T03:36:39.768Z,12.20
2019-05-11T03:37:39.723Z,11.10
2019-05-11T03:38:39.711Z,10.90
2019-05-11T03:39:39.713Z,10.90
2019-05-11T03:40:39.711Z,12.60
2019-05-11T03:41:39.706Z,12.10
2019-05-11T03:42:39.674Z,11.20
2019-05-11T03:43:39.666Z,10.70
2019-05-11T03:44:39.650Z,12.50
2019-05-11T03:45:39.652Z,11.40
2019-05-11T03:46:39.639Z,13.10
2019-05-11T03:47:39.643Z,13.10
2019-05-11T03:48:39.610Z,11.30
2019-05-11T03:49:39.599Z,14.80
2019-05-11T03:50:39.587Z,11.20
2019-05-11T03:51:39.591Z,14.30
2019-05-11T03:52:39.578Z,12.90
2019-05-11T03:53:39.575Z,12.80
2019-05-11T03:54:39.544Z,12.20
2019-05-11T03:55:39.536Z,14.00
2019-05-11T03:56:39.546Z,12.70
2019-05-11T03:57:39.514Z,14.60
2019-05-11T03:58:39.495Z,15.40
2019-05-11T03:59:39.492Z,17.50
2019-05-11T04:00:39.517Z,13.90
2019-05-11T04:01:39.486Z,12.60
2019-05-11T04:02:39.466Z,14.70
2019-05-11T04:03:39.469Z,13.30
2019-05-11T04:04:39.439Z,11.70
2019-05-11T04:05:39.495Z,12.50
2019-05-11T04:06:39.434Z,13.30
2019-05-11T04:07:39.404Z,12.00
2019-05-11T04:08:39.392Z,12.30
2019-05-11T04:09:39.402Z,12.50
2019-05-11T04:10:39.409Z,11.40
2019-05-11T04:11:39.369Z,13.00
2019-05-11T04:12:39.353Z,12.70
2019-05-11T04:13:39.338Z,13.10
2019-05-11T04:14:39.332Z,12.80
2019-05-11T04:15:39.327Z,13.70
2019-05-11T04:16:39.332Z,11.40
2019-05-11T04:17:39.289Z,11.30
2019-05-11T04:18:39.290Z,13.00
2019-05-11T04:19:39.274Z,11.70
2019-05-11T04:20:39.262Z,12.20
2019-05-11T04:21:39.265Z,10.90
2019-05-11T04:22:39.233Z,11.80
2019-05-11T04:23:39.224Z,12.10
2019-05-11T04:24:39.214Z,13.40
2019-05-11T04:25:39.220Z,12.00
2019-05-11T04:26:39.222Z,11.80
2019-05-11T04:27:39.206Z,12.20
2019-05-11T04:28:39.173Z,11.80
2019-05-11T04:29:39.162Z,11.30
2019-05-11T04:30:39.146Z,12.40
2019-05-11T04:31:39.140Z,14.60
2019-05-11T04:32:39.149Z,14.10
2019-05-11T04:33:39.140Z,11.80
2019-05-11T04:34:39.114Z,12.00
2019-05-11T04:35:39.099Z,10.80
2019-05-11T04:36:39.114Z,10.30
2019-05-11T04:37:39.095Z,11.40
2019-05-11T04:38:39.084Z,10.90
2019-05-11T04:39:39.073Z,10.50
2019-05-11T04:40:39.044Z,12.40
2019-05-11T04:41:39.044Z,11.60
2019-05-11T04:42:54.231Z,11.50
2019-05-11T04:43:40.019Z,10.70
2019-05-11T04:44:39.002Z,10.80
2019-05-11T04:45:38.995Z,9.60
2019-05-11T04:46:38.987Z,10.20
2019-05-11T04:47:38.996Z,10.10
2019-05-11T04:48:38.962Z,11.70
2019-05-11T04:49:38.965Z,11.30
2019-05-11T04:50:38.966Z,9.50
2019-05-11T04:51:38.923Z,10.90
2019-05-11T04:52:38.939Z,10.80
2019-05-11T04:53:38.907Z,10.70
2019-05-11T04:54:38.894Z,10.20
2019-05-11T04:55:38.874Z,10.70
2019-05-11T04:56:38.881Z,10.80
2019-05-11T04:57:38.888Z,10.70
2019-05-11T04:58:38.856Z,10.60
2019-05-11T04:59:38.843Z,11.30
2019-05-11T05:00:38.835Z,11.30
2019-05-11T05:01:38.824Z,12.50
2019-05-11T05:02:38.838Z,12.20
2019-05-11T05:03:41.134Z,11.00
2019-05-11T05:04:38.783Z,13.70
2019-05-11T05:05:38.771Z,10.00
2019-05-11T05:06:39.094Z,11.30
2019-05-11T05:07:47.714Z,11.30
2019-05-11T05:08:39.734Z,10.50
2019-05-11T05:09:42.570Z,12.20
2019-05-11T05:10:39.745Z,10.80
2019-05-11T05:11:38.719Z,11.30
2019-05-11T05:12:38.712Z,11.10
2019-05-11T05:13:38.685Z,11.10
2019-05-11T05:14:38.677Z,10.20
2019-05-11T05:15:38.660Z,10.60
2019-05-11T05:16:38.653Z,13.00
2019-05-11T05:17:38.657Z,11.90
2019-05-11T05:18:38.635Z,13.00
2019-05-11T05:19:38.634Z,10.40
2019-05-11T05:20:38.610Z,11.10
2019-05-11T05:21:38.613Z,10.50
2019-05-11T05:22:38.633Z,12.60
2019-05-11T05:23:38.583Z,11.30
2019-05-11T05:24:38.577Z,10.60
2019-05-11T05:25:38.570Z,11.50
2019-05-11T05:26:38.549Z,12.80
2019-05-11T05:27:38.531Z,10.70
2019-05-11T05:28:38.556Z,12.20
2019-05-11T05:29:38.518Z,11.40
2019-05-11T05:30:38.513Z,11.90
2019-05-11T05:31:38.493Z,12.30
2019-05-11T05:32:38.492Z,14.00
2019-05-11T05:33:38.480Z,11.10
2019-05-11T05:34:38.459Z,13.50
2019-05-11T05:35:38.465Z,12.20
2019-05-11T05:36:38.451Z,12.60
2019-05-11T05:37:38.437Z,13.70
2019-05-11T05:38:38.441Z,11.80
2019-05-11T05:39:38.402Z,12.20
2019-05-11T05:40:38.388Z,13.70
2019-05-11T05:41:38.813Z,13.60
2019-05-11T05:42:38.377Z,12.60
2019-05-11T05:43:38.385Z,15.50
2019-05-11T05:44:38.355Z,11.60
2019-05-11T05:45:38.335Z,12.80
2019-05-11T05:46:38.321Z,11.50
2019-05-11T05:47:38.323Z,11.70
2019-05-11T05:48:38.334Z,13.00
2019-05-11T05:49:38.307Z,12.70
2019-05-11T05:50:38.285Z,12.60
2019-05-11T05:51:38.279Z,13.50
2019-05-11T05:52:38.270Z,12.60
2019-05-11T05:53:38.273Z,11.30
2019-05-11T05:54:38.240Z,13.60
2019-05-11T05:55:38.236Z,13.50
2019-05-11T05:56:38.225Z,12.50
2019-05-11T05:57:38.209Z,13.60
2019-05-11T05:58:38.225Z,11.50
2019-05-11T05:59:38.199Z,12.00
2019-05-11T06:00:38.185Z,13.30
2019-05-11T06:01:38.177Z,13.00
2019-05-11T06:02:38.161Z,13.20
2019-05-11T06:03:38.165Z,11.00
2019-05-11T06:04:38.147Z,12.60
2019-05-11T06:05:38.188Z,12.70
2019-05-11T06:06:38.165Z,13.20
2019-05-11T06:07:38.154Z,13.60
2019-05-11T06:08:38.102Z,12.30
2019-05-11T06:09:38.090Z,13.20
2019-05-11T06:10:38.084Z,12.40
2019-05-11T06:11:38.082Z,13.20
2019-05-11T06:12:38.041Z,11.50
2019-05-11T06:13:44.989Z,13.10
2019-05-11T06:14:39.033Z,12.40
2019-05-11T06:15:38.021Z,14.00
2019-05-11T06:16:38.014Z,14.60
2019-05-11T06:17:37.989Z,14.80
2019-05-11T06:18:38.001Z,16.80
2019-05-11T06:19:37.967Z,13.70
2019-05-11T06:20:37.955Z,12.70
2019-05-11T06:21:37.976Z,15.80
2019-05-11T06:22:37.951Z,13.20
2019-05-11T06:23:38.094Z,15.30
2019-05-11T06:24:37.925Z,15.10
2019-05-11T06:25:37.915Z,16.00
2019-05-11T06:26:37.895Z,14.10
2019-05-11T06:27:37.897Z,12.90
2019-05-11T06:28:37.906Z,14.20
2019-05-11T06:29:37.860Z,12.50
2019-05-11T06:30:37.855Z,13.10
2019-05-11T06:31:37.841Z,14.40
2019-05-11T06:32:37.828Z,13.10
2019-05-11T06:33:37.840Z,13.10
2019-05-11T06:34:37.818Z,12.80
2019-05-11T06:35:37.794Z,12.00
2019-05-11T06:36:37.792Z,13.00
2019-05-11T06:37:37.769Z,12.90
2019-05-11T06:38:37.775Z,12.80
2019-05-11T06:39:37.758Z,12.60
2019-05-11T06:40:37.750Z,12.80
2019-05-11T06:41:37.732Z,13.20
2019-05-11T06:42:37.721Z,11.60
2019-05-11T06:43:37.732Z,12.20
2019-05-11T06:44:37.717Z,13.00
2019-05-11T06:45:37.691Z,11.70
2019-05-11T06:46:37.676Z,13.40
2019-05-11T06:47:37.717Z,11.70
2019-05-11T06:48:37.659Z,12.40
2019-05-11T06:49:37.658Z,11.70
2019-05-11T06:50:37.635Z,11.80
2019-05-11T06:51:40.353Z,14.30
2019-05-11T06:52:37.627Z,12.10
2019-05-11T06:53:37.617Z,12.70
2019-05-11T06:54:37.648Z,11.20
2019-05-11T06:55:37.584Z,11.20
2019-05-11T06:56:37.578Z,12.20
2019-05-11T06:57:37.566Z,11.70
2019-05-11T06:58:37.551Z,10.40
2019-05-11T06:59:37.558Z,11.40
2019-05-11T07:00:37.537Z,12.50
2019-05-11T07:01:37.510Z,10.60
2019-05-11T07:02:37.616Z,12.40
2019-05-11T07:03:37.513Z,13.40
2019-05-11T07:04:37.624Z,13.70
2019-05-11T07:05:37.499Z,11.20
2019-05-11T07:06:37.495Z,10.70
2019-05-11T07:07:47.146Z,12.00
2019-05-11T07:08:38.457Z,12.20
2019-05-11T07:09:37.495Z,10.10
2019-05-11T07:10:37.712Z,10.70
2019-05-11T07:11:37.454Z,11.30
2019-05-11T07:12:37.406Z,10.20
2019-05-11T07:13:37.454Z,11.20
2019-05-11T07:14:37.434Z,10.60
2019-05-11T07:15:37.366Z,11.90
2019-05-11T07:16:37.368Z,10.80
2019-05-11T07:17:37.390Z,9.30
2019-05-11T07:18:37.366Z,10.40
2019-05-11T07:19:37.384Z,10.40
2019-05-11T07:20:49.498Z,9.40
2019-05-11T07:21:38.296Z,9.40
2019-05-11T07:22:37.289Z,9.60
2019-05-11T07:23:37.288Z,8.70
2019-05-11T07:24:37.305Z,8.90
2019-05-11T07:25:37.285Z,8.10
2019-05-11T07:26:37.251Z,8.80
2019-05-11T07:27:37.245Z,9.00
2019-05-11T07:28:37.248Z,9.30
2019-05-11T07:29:37.248Z,9.70
2019-05-11T07:30:37.268Z,10.90
2019-05-11T07:31:37.209Z,9.10
2019-05-11T07:32:38.152Z,9.70
2019-05-11T07:33:37.984Z,8.30
2019-05-11T07:34:38.322Z,8.40
2019-05-11T07:35:38.487Z,9.00
2019-05-11T07:36:38.778Z,8.20
2019-05-11T07:37:38.496Z,8.10
2019-05-11T07:38:38.189Z,8.60
2019-05-11T07:39:38.321Z,7.80
2019-05-11T07:40:38.518Z,10.20
2019-05-11T07:41:38.665Z,8.70
2019-05-11T07:42:37.947Z,7.20
2019-05-11T07:43:38.049Z,7.20
2019-05-11T07:44:41.077Z,7.90
2019-05-11T07:45:38.665Z,8.20
2019-05-11T07:46:37.715Z,7.80
2019-05-11T07:47:38.003Z,8.00
2019-05-11T07:48:38.748Z,8.80
2019-05-11T07:49:38.267Z,9.00
2019-05-11T07:50:38.766Z,8.10
2019-05-11T07:51:38.925Z,7.30
2019-05-11T07:52:37.820Z,7.90
2019-05-11T07:53:38.126Z,10.40
2019-05-11T07:54:38.542Z,6.80
2019-05-11T07:55:38.553Z,8.00
2019-05-11T07:56:38.989Z,6.60
2019-05-11T07:57:39.000Z,6.40
2019-05-11T07:58:38.714Z,6.40
2019-05-11T07:59:38.208Z,11.40
2019-05-11T08:00:39.763Z,6.90
2019-05-11T08:01:38.626Z,7.60
2019-05-11T08:02:38.673Z,7.00
2019-05-11T08:03:38.932Z,6.10
2019-05-11T08:04:37.862Z,7.20
2019-05-11T08:05:38.577Z,7.40
2019-05-11T08:06:38.914Z,7.60
2019-05-11T08:07:37.839Z,6.90
2019-05-11T08:08:38.466Z,6.50
2019-05-11T08:09:38.057Z,7.30
2019-05-11T08:10:39.029Z,7.10
2019-05-11T08:11:38.839Z,6.20
2019-05-11T08:12:39.231Z,8.80
2019-05-11T08:13:38.826Z,7.00
2019-05-11T08:14:55.378Z,7.50
2019-05-11T08:15:38.355Z,7.70
2019-05-11T08:16:39.002Z,8.10
2019-05-11T08:17:38.099Z,9.60
2019-05-11T08:18:38.679Z,7.10
2019-05-11T08:19:38.422Z,8.30
2019-05-11T08:20:38.574Z,7.40
2019-05-11T08:21:38.682Z,5.70
2019-05-11T08:22:37.761Z,5.50
2019-05-11T08:23:37.707Z,6.20
2019-05-11T08:24:37.754Z,6.90
2019-05-11T08:25:37.928Z,5.20
2019-05-11T08:26:38.621Z,6.80
2019-05-11T08:27:37.882Z,5.60
2019-05-11T08:28:38.079Z,5.70
2019-05-11T08:29:38.379Z,5.80
2019-05-11T08:30:38.151Z,6.80
2019-05-11T08:31:38.556Z,7.40
2019-05-11T08:32:38.678Z,7.00
2019-05-11T08:33:38.696Z,5.80
2019-05-11T08:34:36.535Z,6.50
2019-05-11T08:35:38.787Z,5.20
2019-05-11T08:36:37.834Z,5.80
2019-05-11T08:37:38.554Z,6.30
2019-05-11T08:38:37.804Z,5.60
2019-05-11T08:39:37.961Z,5.30
2019-05-11T08:40:37.899Z,5.50
2019-05-11T08:41:38.406Z,5.40
2019-05-11T08:42:37.836Z,5.00
2019-05-11T08:43:38.682Z,6.80
2019-05-11T08:44:37.972Z,5.20
2019-05-11T08:45:36.415Z,4.50
2019-05-11T08:46:38.627Z,5.20
2019-05-11T08:47:37.707Z,4.80
2019-05-11T08:48:38.616Z,4.80
2019-05-11T08:49:38.102Z,6.20
2019-05-11T08:50:38.282Z,4.30
2019-05-11T08:51:38.621Z,4.50
2019-05-11T08:52:38.434Z,4.50
2019-05-11T08:53:38.565Z,4.30
2019-05-11T08:54:38.233Z,5.10
2019-05-11T08:55:38.214Z,4.50
2019-05-11T08:56:38.267Z,5.00
2019-05-11T08:57:38.524Z,5.30
2019-05-11T08:58:38.046Z,5.20
2019-05-11T08:59:38.073Z,5.60
2019-05-11T09:00:38.757Z,4.10
2019-05-11T09:01:36.257Z,4.90
2019-05-11T09:02:38.266Z,4.80
2019-05-11T09:03:38.565Z,4.00
2019-05-11T09:04:39.378Z,3.90
2019-05-11T09:05:38.468Z,5.10
2019-05-11T09:06:37.637Z,5.90
2019-05-11T09:07:38.315Z,6.90
2019-05-11T09:08:38.641Z,3.90
2019-05-11T09:09:38.044Z,3.80
2019-05-11T09:10:39.130Z,3.90
2019-05-11T09:11:36.120Z,4.80
2019-05-11T09:12:38.191Z,3.80
2019-05-11T09:13:36.102Z,4.80
2019-05-11T09:14:38.546Z,3.80
2019-05-11T09:15:39.807Z,4.10
2019-05-11T09:16:38.116Z,4.10
2019-05-11T09:17:38.157Z,4.50
2019-05-11T09:18:38.413Z,4.20
2019-05-11T09:19:36.036Z,4.00
2019-05-11T09:20:37.851Z,5.10
2019-05-11T09:21:38.195Z,3.90
2019-05-11T09:22:38.126Z,3.90
2019-05-11T09:23:38.272Z,4.60
2019-05-11T09:24:38.450Z,5.40
2019-05-11T09:25:38.315Z,3.30
2019-05-11T09:26:35.960Z,3.40
2019-05-11T09:27:37.607Z,4.10
2019-05-11T09:28:38.255Z,3.40
2019-05-11T09:29:35.921Z,4.40
2019-05-11T09:30:37.791Z,3.50
2019-05-11T09:31:38.006Z,5.80
2019-05-11T09:32:38.282Z,3.50
2019-05-11T09:33:35.880Z,4.50
2019-05-11T09:34:37.744Z,3.20
2019-05-11T09:35:47.561Z,5.50
2019-05-11T09:36:38.916Z,3.10
2019-05-11T09:37:38.000Z,4.20
2019-05-11T09:38:38.178Z,4.90
2019-05-11T09:39:37.896Z,3.00
2019-05-11T09:40:35.809Z,3.60
2019-05-11T09:41:38.091Z,3.30
2019-05-11T09:42:35.800Z,3.10
2019-05-11T09:43:37.647Z,4.20
2019-05-11T09:44:37.825Z,3.30
2019-05-11T09:45:45.778Z,3.80
2019-05-11T09:46:38.455Z,2.70
2019-05-11T09:47:35.722Z,4.50
2019-05-11T09:48:37.855Z,3.70
2019-05-11T09:49:46.405Z,3.70
2019-05-11T09:50:38.736Z,4.40
2019-05-11T09:51:37.823Z,4.50
2019-05-11T09:52:38.248Z,5.10
2019-05-11T09:53:35.672Z,4.70
2019-05-11T09:54:37.675Z,4.80
2019-05-11T09:55:35.646Z,4.30
2019-05-11T09:56:37.964Z,4.00
2019-05-11T09:57:37.997Z,4.00
2019-05-11T09:58:35.714Z,4.10
2019-05-11T09:59:35.600Z,4.40
2019-05-11T10:00:35.614Z,4.30
2019-05-11T10:01:37.692Z,3.90
2019-05-11T10:02:38.302Z,4.80
2019-05-11T10:03:35.573Z,3.70
2019-05-11T10:04:37.829Z,3.20
2019-05-11T10:05:35.535Z,4.20
2019-05-11T10:06:35.517Z,3.70
2019-05-11T10:07:37.817Z,5.50
2019-05-11T10:08:38.023Z,5.90
2019-05-11T10:09:35.508Z,4.50
2019-05-11T10:10:35.529Z,4.40
2019-05-11T10:11:35.463Z,4.40
2019-05-11T10:12:37.819Z,4.20
2019-05-11T10:13:35.481Z,4.50
2019-05-11T10:14:35.432Z,4.50
2019-05-11T10:15:35.426Z,4.70
2019-05-11T10:16:35.420Z,5.10
2019-05-11T10:17:35.397Z,5.30
2019-05-11T10:18:35.410Z,5.30
2019-05-11T10:19:35.380Z,4.80
2019-05-11T10:20:35.378Z,5.70
2019-05-11T10:21:35.361Z,6.20
2019-05-11T10:22:35.348Z,5.30
2019-05-11T10:23:35.350Z,4.80
2019-05-11T10:24:35.326Z,4.30
2019-05-11T10:25:35.310Z,5.40
2019-05-11T10:26:35.308Z,6.80
2019-05-11T10:27:35.289Z,5.00
2019-05-11T10:28:35.426Z,5.00
2019-05-11T10:29:35.269Z,5.10
2019-05-11T10:30:35.273Z,6.50
2019-05-11T10:31:35.245Z,7.70
2019-05-11T10:32:37.720Z,6.00
2019-05-11T10:33:35.249Z,5.80
2019-05-11T10:34:35.214Z,5.40
2019-05-11T10:35:37.675Z,6.10
2019-05-11T10:36:35.196Z,5.50
2019-05-11T10:37:35.176Z,6.10
2019-05-11T10:38:35.192Z,6.10
2019-05-11T10:39:35.167Z,7.50
2019-05-11T10:40:35.144Z,5.80
2019-05-11T10:41:35.141Z,6.50
2019-05-11T10:42:35.129Z,6.70
2019-05-11T10:43:35.139Z,6.10
2019-05-11T10:44:35.120Z,5.70
2019-05-11T10:45:35.099Z,5.30
2019-05-11T10:46:35.083Z,6.10
2019-05-11T10:47:35.075Z,5.40
2019-05-11T10:48:35.065Z,5.10
2019-05-11T10:49:35.066Z,5.00
2019-05-11T10:50:35.037Z,5.20
2019-05-11T10:51:35.029Z,7.50
2019-05-11T10:52:35.013Z,7.20
2019-05-11T10:53:35.031Z,5.20
2019-05-11T10:54:35.020Z,7.30
2019-05-11T10:55:34.987Z,6.30
2019-05-11T10:56:34.979Z,5.30
2019-05-11T10:57:34.966Z,5.40
2019-05-11T10:58:34.953Z,5.80
2019-05-11T10:59:34.964Z,5.50
2019-05-11T11:00:34.936Z,5.20
2019-05-11T11:01:34.916Z,5.60
2019-05-11T11:02:34.917Z,5.80
2019-05-11T11:03:34.897Z,5.60
2019-05-11T11:04:34.900Z,7.30
2019-05-11T11:05:34.880Z,5.30
2019-05-11T11:06:34.882Z,6.10
2019-05-11T11:07:34.858Z,6.50
2019-05-11T11:08:34.858Z,7.90
2019-05-11T11:09:34.860Z,6.20
2019-05-11T11:10:34.822Z,7.00
2019-05-11T11:11:34.810Z,7.60
2019-05-11T11:12:34.803Z,6.80
2019-05-11T11:13:34.793Z,7.20
2019-05-11T11:14:34.796Z,7.80
2019-05-11T11:15:34.769Z,7.10
2019-05-11T11:16:38.788Z,6.60
2019-05-11T11:17:37.971Z,7.80
2019-05-11T11:18:34.739Z,7.00
2019-05-11T11:19:34.751Z,8.50
2019-05-11T11:20:34.719Z,7.10
2019-05-11T11:21:34.700Z,7.40
2019-05-11T11:22:40.152Z,8.30
2019-05-11T11:23:35.680Z,8.60
2019-05-11T11:24:34.667Z,8.80
2019-05-11T11:25:34.682Z,8.90
2019-05-11T11:26:34.650Z,8.10
2019-05-11T11:27:34.641Z,8.60
2019-05-11T11:28:34.638Z,10.00
2019-05-11T11:29:34.636Z,10.60
2019-05-11T11:30:34.626Z,10.50
2019-05-11T11:31:34.597Z,9.50
2019-05-11T11:32:34.588Z,9.80
2019-05-11T11:33:34.580Z,11.20
2019-05-11T11:34:34.564Z,10.40
2019-05-11T11:35:34.570Z,10.70
2019-05-11T11:36:34.540Z,12.40
2019-05-11T11:37:34.541Z,11.80
2019-05-11T11:38:34.523Z,11.20
2019-05-11T11:39:34.526Z,10.70
2019-05-11T11:40:34.519Z,13.90
2019-05-11T11:41:34.491Z,12.70
2019-05-11T11:42:34.477Z,11.60
2019-05-11T11:43:34.465Z,12.30
2019-05-11T11:44:34.452Z,13.00
2019-05-11T11:45:34.479Z,12.90
2019-05-11T11:46:48.523Z,12.50
2019-05-11T11:47:35.453Z,13.60
2019-05-11T11:48:34.412Z,12.50
2019-05-11T11:49:34.405Z,13.90
2019-05-11T11:50:34.406Z,14.30
2019-05-11T11:51:34.390Z,15.50
2019-05-11T11:52:34.402Z,13.50
2019-05-11T11:53:34.355Z,14.90
2019-05-11T11:54:34.355Z,13.30
2019-05-11T11:55:34.351Z,14.40
2019-05-11T11:56:34.325Z,13.60
2019-05-11T11:57:34.318Z,14.50
2019-05-11T11:58:34.307Z,13.30
2019-05-11T11:59:34.298Z,16.00
2019-05-11T12:00:34.314Z,14.70
2019-05-11T12:01:34.267Z,16.20
2019-05-11T12:02:34.282Z,17.60
2019-05-11T12:03:34.263Z,17.70
2019-05-11T12:04:34.250Z,16.30
2019-05-11T12:05:34.229Z,16.70
2019-05-11T12:06:34.233Z,18.40
2019-05-11T12:07:34.206Z,18.30
2019-05-11T12:08:34.193Z,18.50
2019-05-11T12:09:34.191Z,17.90
2019-05-11T12:10:34.201Z,18.20
2019-05-11T12:11:34.183Z,21.40
2019-05-11T12:12:34.234Z,19.90
2019-05-11T12:13:34.217Z,20.20
2019-05-11T12:14:34.216Z,21.50
2019-05-11T12:15:34.148Z,19.50
2019-05-11T12:16:34.161Z,20.30
2019-05-11T12:17:34.133Z,23.00
2019-05-11T12:18:34.090Z,23.40
2019-05-11T12:19:34.076Z,25.30
2019-05-11T12:20:34.062Z,25.20
2019-05-11T12:21:34.076Z,24.60
2019-05-11T12:22:34.048Z,28.90
2019-05-11T12:23:34.048Z,25.60
2019-05-11T12:24:34.032Z,26.40
2019-05-11T12:25:37.301Z,27.50
2019-05-11T12:26:35.024Z,28.00
2019-05-11T12:27:33.990Z,26.50
2019-05-11T12:28:33.980Z,30.20
2019-05-11T12:29:33.971Z,29.00
2019-05-11T12:30:33.960Z,31.00
2019-05-11T12:31:33.966Z,29.70
2019-05-11T12:32:33.940Z,29.90
2019-05-11T12:33:33.922Z,31.90
2019-05-11T12:34:33.923Z,30.90
2019-05-11T12:35:33.904Z,32.00
2019-05-11T12:36:33.914Z,30.00
2019-05-11T12:37:33.878Z,29.70
2019-05-11T12:38:33.893Z,32.60
2019-05-11T12:39:33.860Z,32.80
2019-05-11T12:40:33.846Z,33.40
2019-05-11T12:41:33.857Z,30.30
2019-05-11T12:42:33.831Z,31.20
2019-05-11T12:43:33.823Z,31.10
2019-05-11T12:44:33.814Z,29.30
2019-05-11T12:45:33.799Z,28.60
2019-05-11T12:46:36.650Z,30.30
2019-05-11T12:47:33.772Z,28.20
2019-05-11T12:48:33.777Z,28.70
2019-05-11T12:49:33.756Z,30.10
2019-05-11T12:50:33.747Z,30.60
2019-05-11T12:51:33.745Z,29.20
2019-05-11T12:52:33.716Z,27.40
2019-05-11T12:53:33.712Z,26.40
2019-05-11T12:54:34.146Z,28.50
2019-05-11T12:55:33.689Z,24.80
2019-05-11T12:56:33.699Z,23.40
2019-05-11T12:57:33.668Z,22.70
2019-05-11T12:58:33.654Z,21.30
2019-05-11T12:59:33.648Z,23.60
2019-05-11T13:00:33.628Z,22.10
2019-05-11T13:01:33.660Z,22.80
2019-05-11T13:02:33.614Z,22.60